createdAt,value
2022-12-15T06:30:43.609Z,90.36
2022-12-15T09:14:41.893Z,64.83
2022-12-15T09:16:08.476Z,63.75
2022-12-15T09:16:41.793Z,62.57
2022-12-15T09:17:41.758Z,61.71
2022-12-15T09:18:41.750Z,60.66
2022-12-15T09:19:41.743Z,60.25
2022-12-15T09:20:41.748Z,59.80
2022-12-15T09:29:41.633Z,63.02
2022-12-15T09:30:43.670Z,61.87
2022-12-15T09:31:41.612Z,61.92
2022-12-15T09:32:41.592Z,60.85
2022-12-15T09:33:41.594Z,59.93
2022-12-15T09:34:41.571Z,60.19
2022-12-15T09:35:41.564Z,59.33
2022-12-15T09:36:41.569Z,58.65
2022-12-15T09:37:41.539Z,57.92
2022-12-15T09:38:41.526Z,57.64
2022-12-15T09:39:41.519Z,57.74
2022-12-15T09:40:41.504Z,57.97
2022-12-15T09:41:41.500Z,58.31
2022-12-15T09:42:41.484Z,58.78
2022-12-15T09:43:46.455Z,59.54
2022-12-15T09:44:41.459Z,60.15
2022-12-15T09:45:41.531Z,59.88
2022-12-15T09:46:41.539Z,59.12
2022-12-15T09:47:41.433Z,58.65
2022-12-15T09:48:41.419Z,57.79
2022-12-15T09:49:41.404Z,56.70
2022-12-15T09:50:41.390Z,56.15
2022-12-15T09:51:41.380Z,55.48
2022-12-15T09:52:41.405Z,54.23
2022-12-15T09:53:57.297Z,53.74
2022-12-15T09:54:41.484Z,54.38
2022-12-15T09:55:41.337Z,56.67
2022-12-15T09:56:41.333Z,58.74
2022-12-15T09:57:41.311Z,60.57
2022-12-15T09:58:41.308Z,60.75
2022-12-15T09:59:41.292Z,60.41
2022-12-15T10:00:44.422Z,60.77
2022-12-15T10:02:41.338Z,61.69
2022-12-15T10:03:41.418Z,60.58
2022-12-15T10:04:41.235Z,59.96
2022-12-15T10:06:06.109Z,60.07
2022-12-15T10:06:41.217Z,60.25
2022-12-15T10:07:41.205Z,59.83
2022-12-15T10:08:41.235Z,59.72
2022-12-15T10:09:41.182Z,60.38
2022-12-15T10:10:43.173Z,60.82
2022-12-15T10:11:41.164Z,61.45
2022-12-15T10:12:53.189Z,61.76
2022-12-15T10:13:41.234Z,61.24
2022-12-15T10:14:41.124Z,61.27
2022-12-15T10:15:41.156Z,62.03
2022-12-15T10:44:40.793Z,66.63
2022-12-15T10:45:40.781Z,65.11
2022-12-15T10:46:40.845Z,64.53
2022-12-15T10:47:40.756Z,62.89
2022-12-15T10:48:40.748Z,62.60
2022-12-15T10:49:40.736Z,62.89
2022-12-15T10:50:40.729Z,62.99
2022-12-15T10:51:40.712Z,63.09
2022-12-15T10:52:40.707Z,62.75
2022-12-15T10:53:40.689Z,61.99
2022-12-15T10:54:40.678Z,61.68
2022-12-15T10:55:40.673Z,61.37
2022-12-15T10:56:40.689Z,61.55
2022-12-15T10:57:40.650Z,61.13
2022-12-15T10:58:40.635Z,61.24
2022-12-15T10:59:40.627Z,61.31
2022-12-15T11:00:40.614Z,60.97
2022-12-15T11:01:40.762Z,60.76
2022-12-15T11:02:40.842Z,60.08
2022-12-15T11:03:41.381Z,59.46
2022-12-15T11:04:40.654Z,59.53
2022-12-15T11:05:40.563Z,59.09
2022-12-15T11:06:40.544Z,58.52
2022-12-15T11:07:40.535Z,59.82
2022-12-15T11:08:40.521Z,60.71
2022-12-15T11:09:40.521Z,61.60
2022-12-15T11:10:42.501Z,62.20
2022-12-15T11:11:45.141Z,62.10
2022-12-15T11:12:40.506Z,62.31
2022-12-15T11:13:40.751Z,62.41
2022-12-15T11:14:40.455Z,62.10
2022-12-15T11:15:40.525Z,61.99
2022-12-15T11:16:40.431Z,62.51
2022-12-15T11:17:40.430Z,62.62
2022-12-15T11:18:40.419Z,63.07
2022-12-15T11:19:40.398Z,63.31
2022-12-15T11:20:40.388Z,64.22
2022-12-15T11:21:40.377Z,64.11
2022-12-15T11:22:40.360Z,63.38
2022-12-15T11:23:40.380Z,63.41
2022-12-15T11:24:40.340Z,63.83
2022-12-15T11:25:40.426Z,64.93
2022-12-15T11:26:40.340Z,65.24
2022-12-15T11:27:40.316Z,65.35
2022-12-15T11:28:40.327Z,65.69
2022-12-15T11:30:40.272Z,66.63
2022-12-15T11:31:40.259Z,66.63
2022-12-15T11:32:40.253Z,66.81
2022-12-15T11:33:40.240Z,66.19
2022-12-15T12:07:42.120Z,71.03
2022-12-15T12:08:39.842Z,70.26
2022-12-15T12:09:39.832Z,69.40
2022-12-15T12:10:39.876Z,69.40
2022-12-15T12:11:39.809Z,69.05
2022-12-15T12:12:39.801Z,68.95
2022-12-15T12:13:39.792Z,68.21
2022-12-15T12:14:39.773Z,67.69
2022-12-15T12:15:39.763Z,67.69
2022-12-15T12:16:39.792Z,67.93
2022-12-15T12:17:39.739Z,68.21
2022-12-15T12:18:39.772Z,68.42
2022-12-15T12:19:39.723Z,68.57
2022-12-15T12:20:39.704Z,67.85
2022-12-15T12:21:39.693Z,66.22
2022-12-15T12:22:39.687Z,65.02
2022-12-15T12:23:39.670Z,63.69
2022-12-15T12:24:39.656Z,61.96
2022-12-15T12:25:39.648Z,60.66
2022-12-15T12:26:39.646Z,59.52
2022-12-15T12:27:39.624Z,59.03
2022-12-15T12:28:39.623Z,59.03
2022-12-15T12:29:39.604Z,59.35
2022-12-15T12:30:39.593Z,59.63
2022-12-15T12:31:39.583Z,59.08
2022-12-15T12:32:39.591Z,58.33
2022-12-15T12:33:39.562Z,57.76
2022-12-15T12:34:39.553Z,56.93
2022-12-15T12:35:39.535Z,56.49
2022-12-15T12:36:39.526Z,56.70
2022-12-15T12:37:39.516Z,56.39
2022-12-15T12:38:39.503Z,55.87
2022-12-15T12:39:39.499Z,55.89
2022-12-15T12:40:39.480Z,56.31
2022-12-15T12:41:39.471Z,56.10
2022-12-15T12:42:39.465Z,56.41
2022-12-15T12:43:39.455Z,56.41
2022-12-15T12:44:39.452Z,56.54
2022-12-15T12:45:39.433Z,56.98
2022-12-15T12:46:39.417Z,57.40
2022-12-15T12:47:39.401Z,57.60
2022-12-15T12:48:39.419Z,57.58
2022-12-15T12:49:39.379Z,56.75
2022-12-15T12:50:39.369Z,57.16
2022-12-15T12:51:39.359Z,57.47
2022-12-15T12:52:39.352Z,57.76
2022-12-15T12:53:39.338Z,59.37
2022-12-15T12:54:39.327Z,60.10
2022-12-15T12:55:39.311Z,60.13
2022-12-15T12:56:39.302Z,60.72
2022-12-15T12:57:39.298Z,60.62
2022-12-15T12:58:39.277Z,60.65
2022-12-15T12:59:39.273Z,60.85
2022-12-15T13:00:39.399Z,61.48
2022-12-15T13:01:39.425Z,61.27
2022-12-15T13:02:39.398Z,61.27
2022-12-15T13:03:39.224Z,61.50
2022-12-15T13:04:39.245Z,61.71
2022-12-15T13:05:39.200Z,61.79
2022-12-15T13:06:39.195Z,61.65
2022-12-15T13:07:39.185Z,61.37
2022-12-15T13:08:39.168Z,61.40
2022-12-15T13:09:39.162Z,62.63
2022-12-15T13:10:39.178Z,64.04
2022-12-15T13:11:39.138Z,65.22
2022-12-15T13:12:54.927Z,65.74
2022-12-15T13:13:39.114Z,65.94
2022-12-15T13:14:39.099Z,65.57
2022-12-15T13:15:39.096Z,64.74
2022-12-15T13:16:40.520Z,65.11
2022-12-15T13:17:39.075Z,66.05
2022-12-15T13:18:39.059Z,66.02
2022-12-15T13:19:39.048Z,65.91
2022-12-15T13:20:39.057Z,65.60
2022-12-15T13:21:39.029Z,65.78
2022-12-15T13:22:39.016Z,65.47
2022-12-15T13:23:39.010Z,65.13
2022-12-15T13:24:38.992Z,64.61
2022-12-15T13:25:38.985Z,64.71
2022-12-15T13:26:38.969Z,64.50
2022-12-15T13:27:38.955Z,64.50
2022-12-15T13:28:38.952Z,64.95
2022-12-15T13:29:38.938Z,65.71
2022-12-15T13:30:39.029Z,66.49
2022-12-15T13:31:39.008Z,67.33
2022-12-15T13:32:39.007Z,67.85
2022-12-15T13:33:38.895Z,67.68
2022-12-15T13:34:38.912Z,67.03
2022-12-15T13:35:39.001Z,66.19
2022-12-15T13:36:38.886Z,66.12
2022-12-15T13:37:38.852Z,66.12
2022-12-15T13:38:38.838Z,66.33
2022-12-15T13:39:38.823Z,66.65
2022-12-15T13:40:38.816Z,67.06
2022-12-15T13:41:40.574Z,66.96
2022-12-15T13:42:51.398Z,66.82
2022-12-15T13:43:38.779Z,66.37
2022-12-15T13:44:38.765Z,65.75
2022-12-15T13:45:38.791Z,65.67
2022-12-15T13:46:38.746Z,65.78
2022-12-15T13:47:38.739Z,66.12
2022-12-15T13:48:38.771Z,66.43
2022-12-15T13:49:42.033Z,66.65
2022-12-15T13:50:38.700Z,66.85
2022-12-15T13:51:38.691Z,66.85
2022-12-15T13:53:08.542Z,66.65
2022-12-15T13:53:38.885Z,66.43
2022-12-15T13:54:38.662Z,66.65
2022-12-15T13:55:38.643Z,66.99
2022-12-15T13:56:38.631Z,67.19
2022-12-15T13:57:38.623Z,67.64
2022-12-15T13:58:38.612Z,68.20
2022-12-15T13:59:38.601Z,68.75
2022-12-15T14:00:38.584Z,69.03
2022-12-15T14:01:38.630Z,69.27
2022-12-15T14:02:38.562Z,69.58
2022-12-15T14:03:39.063Z,69.93
2022-12-15T14:04:38.544Z,70.14
2022-12-15T14:05:38.534Z,70.34
2022-12-15T14:06:38.521Z,70.66
2022-12-15T14:07:38.505Z,70.66
2022-12-15T14:08:38.521Z,70.86
2022-12-15T14:09:38.485Z,70.97
2022-12-15T14:10:38.471Z,71.08
2022-12-15T14:11:52.387Z,70.86
2022-12-15T14:12:38.449Z,70.86
2022-12-15T14:13:38.599Z,70.86
2022-12-15T14:14:38.435Z,70.76
2022-12-15T14:15:38.424Z,70.80
2022-12-15T14:16:38.616Z,71.00
2022-12-15T14:17:38.401Z,71.11
2022-12-15T14:18:38.382Z,71.21
2022-12-15T14:19:38.749Z,71.42
2022-12-15T14:20:38.359Z,71.63
2022-12-15T14:21:40.352Z,71.70
2022-12-15T14:22:38.343Z,71.49
2022-12-15T14:23:38.330Z,71.28
2022-12-15T14:24:39.966Z,71.52
2022-12-15T14:25:38.303Z,71.94
2022-12-15T14:26:38.317Z,72.29
2022-12-15T14:27:38.295Z,72.46
2022-12-15T14:28:38.270Z,72.46
2022-12-15T14:29:40.260Z,72.36
2022-12-15T14:30:38.250Z,72.15
2022-12-15T14:31:38.344Z,72.02
2022-12-15T14:32:38.226Z,71.91
2022-12-15T14:33:38.765Z,71.70
2022-12-15T14:34:38.208Z,71.39
2022-12-15T14:35:38.198Z,71.18
2022-12-15T14:36:38.188Z,71.08
2022-12-15T14:37:38.177Z,71.18
2022-12-15T14:38:38.159Z,71.42
2022-12-15T14:39:38.146Z,71.63
2022-12-15T14:40:38.167Z,71.77
2022-12-15T14:41:38.124Z,72.08
2022-12-15T14:42:38.114Z,72.53
2022-12-15T14:43:38.120Z,72.95
2022-12-15T14:44:39.076Z,73.16
2022-12-15T14:45:38.141Z,73.51
2022-12-15T14:46:38.069Z,73.71
2022-12-15T14:47:38.062Z,74.06
2022-12-15T14:48:42.311Z,74.37
2022-12-15T14:52:38.000Z,75.53
2022-12-15T14:53:37.987Z,75.53
2022-12-15T14:54:37.984Z,75.10
2022-12-15T14:56:37.980Z,75.63
2022-12-15T14:57:37.947Z,75.42
2022-12-15T14:58:38.158Z,75.32
2022-12-15T14:59:37.931Z,75.18
2022-12-15T15:00:37.911Z,74.97
2022-12-15T15:01:37.918Z,74.76
2022-12-15T15:02:38.111Z,74.65
2022-12-15T15:03:37.875Z,74.59
2022-12-15T15:04:37.866Z,74.79
2022-12-15T15:44:37.461Z,79.47
2022-12-15T15:45:37.401Z,79.68
2022-12-15T15:48:37.364Z,79.89
2022-12-15T15:55:39.865Z,80.00
2022-12-15T16:10:37.130Z,80.52
2022-12-15T17:16:36.476Z,83.72
2022-12-15T17:17:36.387Z,83.72
2022-12-15T17:23:36.733Z,84.03
2022-12-15T17:39:36.136Z,84.13
